createdAt,value
2019-03-17T17:58:55.618Z,8.21
2019-03-17T17:59:55.207Z,8.21
2019-03-17T18:01:50.313Z,8.21
2019-03-17T18:02:49.591Z,8.23
2019-03-17T18:04:43.782Z,8.17
2019-03-17T18:05:43.565Z,8.19
2019-03-17T18:07:38.388Z,8.13
2019-03-17T18:08:37.871Z,8.09
2019-03-17T18:10:31.864Z,7.99
2019-03-17T18:11:31.346Z,7.92
2019-03-17T18:13:25.952Z,7.84
2019-03-17T18:14:25.743Z,7.84
2019-03-17T18:16:20.275Z,7.83
2019-03-17T18:17:20.103Z,7.80
2019-03-17T18:19:13.893Z,7.96
2019-03-17T18:20:13.462Z,7.83
2019-03-17T18:22:09.836Z,7.95
2019-03-17T18:23:17.238Z,7.84
2019-03-17T18:25:00.600Z,7.81
2019-03-17T18:26:00.195Z,7.83
2019-03-17T18:27:53.599Z,7.83
2019-03-17T18:28:53.547Z,7.83
2019-03-17T18:30:48.277Z,7.92
2019-03-17T18:31:47.877Z,7.92
2019-03-17T18:33:42.854Z,7.98
2019-03-17T18:34:42.228Z,7.86
2019-03-17T18:36:36.961Z,7.83
2019-03-17T18:37:36.606Z,7.80
2019-03-17T18:39:32.191Z,7.78
2019-03-17T18:40:31.800Z,7.73
2019-03-17T18:42:33.010Z,7.76
2019-03-17T18:43:26.188Z,7.68
2019-03-17T18:45:21.471Z,7.55
2019-03-17T18:46:20.595Z,7.54
2019-03-17T18:48:14.422Z,7.43
2019-03-17T18:49:13.878Z,7.39
2019-03-17T18:51:08.778Z,7.34
2019-03-17T18:52:08.377Z,7.28
2019-03-17T18:54:05.431Z,7.22
2019-03-17T18:55:03.121Z,7.21
2019-03-17T18:56:57.855Z,7.22
2019-03-17T18:57:57.206Z,7.06
2019-03-17T18:59:52.720Z,7.13
2019-03-17T19:00:52.833Z,7.10
2019-03-17T19:02:48.048Z,7.07
2019-03-17T19:03:45.396Z,7.03
2019-03-17T19:05:40.031Z,7.01
2019-03-17T19:06:40.129Z,7.07
2019-03-17T19:08:37.429Z,7.00
2019-03-17T19:09:35.854Z,7.04
2019-03-17T19:10:34.007Z,6.99
2019-03-17T19:11:34.016Z,7.04
2019-03-17T19:12:44.940Z,7.11
2019-03-17T19:13:37.757Z,7.10
2019-03-17T19:14:33.797Z,7.04
2019-03-17T19:15:33.783Z,7.07
2019-03-17T19:16:33.776Z,7.06
2019-03-17T19:17:33.751Z,7.06
2019-03-17T19:18:33.748Z,7.10
2019-03-17T19:19:33.735Z,7.07
2019-03-17T19:20:33.727Z,7.03
2019-03-17T19:21:33.724Z,7.03
2019-03-17T19:22:33.720Z,7.04
2019-03-17T19:23:33.694Z,7.04
2019-03-17T19:24:33.689Z,7.08
2019-03-17T19:25:33.694Z,7.01
2019-03-17T19:26:33.667Z,7.03
2019-03-17T19:27:33.669Z,6.97
2019-03-17T19:28:33.656Z,6.96
2019-03-17T19:29:33.649Z,6.96
2019-03-17T19:30:33.634Z,6.96
2019-03-17T19:31:33.632Z,6.93
2019-03-17T19:32:35.404Z,6.97
2019-03-17T19:33:36.211Z,6.99
2019-03-17T19:34:33.591Z,6.93
2019-03-17T19:35:33.621Z,6.83
2019-03-17T19:36:33.585Z,6.83
2019-03-17T19:37:33.567Z,6.82
2019-03-17T19:38:33.593Z,6.82
2019-03-17T19:39:33.558Z,6.79
2019-03-17T19:40:33.665Z,6.81
2019-03-17T19:41:33.533Z,6.70
2019-03-17T19:42:36.730Z,6.68
2019-03-17T19:43:33.508Z,6.75
2019-03-17T19:44:33.536Z,6.78
2019-03-17T19:45:33.495Z,6.74
2019-03-17T19:46:33.494Z,6.75
2019-03-17T19:47:33.483Z,6.68
2019-03-17T19:48:33.488Z,6.65
2019-03-17T19:49:34.472Z,6.67
2019-03-17T19:50:33.456Z,6.64
2019-03-17T19:51:33.430Z,6.64
2019-03-17T19:52:33.416Z,6.65
2019-03-17T19:53:33.436Z,6.52
2019-03-17T19:54:33.417Z,6.57
2019-03-17T19:55:33.485Z,6.56
2019-03-17T19:56:33.386Z,6.49
2019-03-17T19:57:33.373Z,6.61
2019-03-17T19:58:33.366Z,6.56
2019-03-17T19:59:33.365Z,6.55
2019-03-17T20:00:33.356Z,6.56
2019-03-17T20:01:33.344Z,6.60
2019-03-17T20:02:33.330Z,6.55
2019-03-17T20:03:33.358Z,6.57
2019-03-17T20:04:35.556Z,6.65
2019-03-17T20:05:33.332Z,6.56
2019-03-17T20:06:33.318Z,6.57
2019-03-17T20:07:33.289Z,6.50
2019-03-17T20:08:33.317Z,6.65
2019-03-17T20:09:33.259Z,6.53
2019-03-17T20:10:33.250Z,6.56
2019-03-17T20:11:33.275Z,6.42
2019-03-17T20:12:33.240Z,6.52
2019-03-17T20:13:33.223Z,6.52
2019-03-17T20:14:33.212Z,6.50
2019-03-17T20:15:33.199Z,6.42
2019-03-17T20:16:33.200Z,6.45
2019-03-17T20:17:33.208Z,6.34
2019-03-17T20:18:33.176Z,6.52
2019-03-17T20:19:33.203Z,6.38
2019-03-17T20:20:33.166Z,6.34
2019-03-17T20:21:33.145Z,6.35
2019-03-17T20:22:33.128Z,6.34
2019-03-17T20:23:33.117Z,6.42
2019-03-17T20:24:33.158Z,6.31
2019-03-17T20:25:33.105Z,6.40
2019-03-17T20:26:33.094Z,6.21
2019-03-17T20:27:33.082Z,6.27
2019-03-17T20:28:33.065Z,6.28
2019-03-17T20:29:33.069Z,6.19
2019-03-17T20:30:33.051Z,6.15
2019-03-17T20:31:33.042Z,6.12
2019-03-17T20:32:33.042Z,6.06
2019-03-17T20:33:33.028Z,6.11
2019-03-17T20:34:35.520Z,6.05
2019-03-17T20:35:33.009Z,6.09
2019-03-17T20:36:32.991Z,6.08
2019-03-17T20:37:32.983Z,5.98
2019-03-17T20:38:33.353Z,6.15
2019-03-17T20:39:32.961Z,6.05
2019-03-17T20:40:32.990Z,6.03
2019-03-17T20:41:32.946Z,5.97
2019-03-17T20:42:32.924Z,5.98
2019-03-17T20:43:35.242Z,5.95
2019-03-17T20:44:32.910Z,5.91
2019-03-17T20:45:32.902Z,5.85
2019-03-17T20:46:32.885Z,5.90
2019-03-17T20:47:32.884Z,5.88
2019-03-17T20:48:32.879Z,5.93
2019-03-17T20:49:32.862Z,5.90
2019-03-17T20:50:32.852Z,5.98
2019-03-17T20:51:32.836Z,6.00
2019-03-17T20:52:32.835Z,5.93
2019-03-17T20:53:32.821Z,5.84
2019-03-17T20:54:32.816Z,5.95
2019-03-17T20:55:32.797Z,5.88
2019-03-17T20:56:32.779Z,5.90
2019-03-17T20:57:32.780Z,5.82
2019-03-17T20:58:32.791Z,5.75
2019-03-17T20:59:32.756Z,5.77
2019-03-17T21:00:32.737Z,5.79
2019-03-17T21:01:32.733Z,5.76
2019-03-17T21:02:32.724Z,5.75
2019-03-17T21:03:32.718Z,5.79
2019-03-17T21:04:32.704Z,5.79
2019-03-17T21:05:32.688Z,5.79
2019-03-17T21:06:32.678Z,5.73
2019-03-17T21:07:32.671Z,5.73
2019-03-17T21:08:32.683Z,5.69
2019-03-17T21:09:32.664Z,5.70
2019-03-17T21:10:32.642Z,5.66
2019-03-17T21:11:32.629Z,5.70
2019-03-17T21:12:32.636Z,5.66
2019-03-17T21:13:32.604Z,5.66
2019-03-17T21:14:32.588Z,5.66
2019-03-17T21:15:32.588Z,5.59
2019-03-17T21:16:32.579Z,5.51
2019-03-17T21:17:32.572Z,5.62
2019-03-17T21:18:32.559Z,5.70
2019-03-17T21:19:32.574Z,5.66
2019-03-17T21:20:32.532Z,5.70
2019-03-17T21:21:32.543Z,5.57
2019-03-17T21:22:32.513Z,5.69
2019-03-17T21:23:32.502Z,5.69
2019-03-17T21:24:32.487Z,5.61
2019-03-17T21:25:32.515Z,5.65
2019-03-17T21:26:32.484Z,5.66
2019-03-17T21:27:32.461Z,5.67
2019-03-17T21:28:32.465Z,5.66
2019-03-17T21:29:32.443Z,5.54
2019-03-17T21:30:32.442Z,5.50
2019-03-17T21:31:32.432Z,5.57
2019-03-17T21:32:32.402Z,5.54
2019-03-17T21:33:32.391Z,5.52
2019-03-17T21:34:32.385Z,5.52
2019-03-17T21:35:32.401Z,5.57
2019-03-17T21:36:32.360Z,5.54
2019-03-17T21:37:32.370Z,5.54
2019-03-17T21:38:32.343Z,5.58
2019-03-17T21:39:32.349Z,5.58
2019-03-17T21:40:32.318Z,5.61
2019-03-17T21:41:32.307Z,5.59
2019-03-17T21:42:32.296Z,5.61
2019-03-17T21:43:32.280Z,5.66
2019-03-17T21:44:32.271Z,5.57
2019-03-17T21:45:32.271Z,5.67
2019-03-17T21:46:32.267Z,5.67
2019-03-17T21:47:32.243Z,5.62
2019-03-17T21:48:32.242Z,5.65
2019-03-17T21:49:32.225Z,5.73
2019-03-17T21:50:32.217Z,5.72
2019-03-17T21:51:32.203Z,5.75
2019-03-17T21:52:32.195Z,5.75
2019-03-17T21:53:32.182Z,5.76
2019-03-17T21:54:32.185Z,5.79
2019-03-17T21:55:32.159Z,5.75
2019-03-17T21:56:32.153Z,5.80
2019-03-17T21:57:32.132Z,5.80
2019-03-17T21:58:32.166Z,5.80
2019-03-17T21:59:32.142Z,5.85
2019-03-17T22:00:32.120Z,5.88
2019-03-17T22:01:32.093Z,5.94
2019-03-17T22:02:32.078Z,5.94
2019-03-17T22:03:32.073Z,5.94
2019-03-17T22:04:32.068Z,5.93
2019-03-17T22:05:32.094Z,5.88
2019-03-17T22:06:32.898Z,5.84
2019-03-17T22:07:32.281Z,5.91
2019-03-17T22:08:32.114Z,5.91
2019-03-17T22:09:32.550Z,5.88
2019-03-17T22:10:32.034Z,5.95
2019-03-17T22:11:34.071Z,5.88
2019-03-17T22:12:32.378Z,5.93
2019-03-17T22:13:34.031Z,5.90
2019-03-17T22:14:31.975Z,5.88
2019-03-17T22:15:31.965Z,5.97
2019-03-17T22:16:31.956Z,5.97
2019-03-17T22:17:31.940Z,5.88
2019-03-17T22:18:31.922Z,5.98
2019-03-17T22:19:31.910Z,5.97
2019-03-17T22:20:31.898Z,5.94
2019-03-17T22:21:31.887Z,5.85
2019-03-17T22:22:31.900Z,6.00
2019-03-17T22:23:31.872Z,5.98
2019-03-17T22:24:31.853Z,5.98
2019-03-17T22:25:31.846Z,5.90
2019-03-17T22:26:31.845Z,6.02
2019-03-17T22:27:31.831Z,5.97
2019-03-17T22:28:31.828Z,5.97
2019-03-17T22:29:31.808Z,5.88
2019-03-17T22:30:31.790Z,5.88
2019-03-17T22:31:31.808Z,6.02
2019-03-17T22:32:31.811Z,5.98
2019-03-17T22:33:31.767Z,5.88
2019-03-17T22:34:31.775Z,5.98
2019-03-17T22:35:31.739Z,5.87
2019-03-17T22:36:31.758Z,6.02
2019-03-17T22:37:31.718Z,5.90
2019-03-17T22:38:31.706Z,5.95
2019-03-17T22:39:31.695Z,5.97
2019-03-17T22:40:31.686Z,6.00
2019-03-17T22:41:31.707Z,5.95
2019-03-17T22:42:31.662Z,5.93
2019-03-17T22:43:31.660Z,5.88
2019-03-17T22:44:31.646Z,5.97
2019-03-17T22:45:31.682Z,6.00
2019-03-17T22:46:31.691Z,6.02
2019-03-17T22:47:31.608Z,6.00
2019-03-17T22:48:31.624Z,6.09
2019-03-17T22:49:31.598Z,6.00
2019-03-17T22:50:31.609Z,6.13
2019-03-17T22:51:33.525Z,6.09
2019-03-17T22:52:31.587Z,6.11
2019-03-17T22:53:31.546Z,6.11
2019-03-17T22:54:31.556Z,6.02
2019-03-17T22:55:31.534Z,5.97
2019-03-17T22:56:31.521Z,6.00
2019-03-17T22:57:31.507Z,5.88
2019-03-17T22:58:31.533Z,5.98
2019-03-17T22:59:31.485Z,6.00
2019-03-17T23:00:31.474Z,6.05
2019-03-17T23:01:31.483Z,6.08
2019-03-17T23:02:31.484Z,6.09
2019-03-17T23:03:31.503Z,6.06
2019-03-17T23:04:31.453Z,6.02
2019-03-17T23:05:31.428Z,6.06
2019-03-17T23:06:31.429Z,6.15
2019-03-17T23:07:31.406Z,6.05
2019-03-17T23:08:31.420Z,6.13
2019-03-17T23:09:31.384Z,6.15
2019-03-17T23:10:31.380Z,6.09
2019-03-17T23:11:33.698Z,6.16
2019-03-17T23:12:31.355Z,6.19
2019-03-17T23:13:31.349Z,6.18
2019-03-17T23:14:36.772Z,6.13
2019-03-17T23:15:31.328Z,6.16
2019-03-17T23:16:31.337Z,6.12
2019-03-17T23:17:31.305Z,6.16
2019-03-17T23:18:31.296Z,6.15
2019-03-17T23:19:31.292Z,6.16
2019-03-17T23:20:31.288Z,6.12
2019-03-17T23:21:31.262Z,6.24
2019-03-17T23:22:31.256Z,6.16
2019-03-17T23:23:31.286Z,6.15
2019-03-17T23:24:31.249Z,6.15
2019-03-17T23:25:31.235Z,6.18
2019-03-17T23:26:31.223Z,6.15
2019-03-17T23:27:31.209Z,6.08
2019-03-17T23:28:31.200Z,6.05
2019-03-17T23:29:31.206Z,6.06
2019-03-17T23:30:31.197Z,6.09
2019-03-17T23:31:31.165Z,6.02
2019-03-17T23:32:31.151Z,6.00
2019-03-17T23:33:31.155Z,6.09
2019-03-17T23:34:31.130Z,5.97
2019-03-17T23:35:31.120Z,5.98
2019-03-17T23:36:31.121Z,5.85
2019-03-17T23:37:31.115Z,5.93
2019-03-17T23:38:31.091Z,5.88
2019-03-17T23:39:33.017Z,5.88
2019-03-17T23:40:31.070Z,5.90
2019-03-17T23:41:31.094Z,5.95
2019-03-17T23:42:31.056Z,5.91
2019-03-17T23:43:31.034Z,5.85
2019-03-17T23:44:31.054Z,5.84
2019-03-17T23:45:31.025Z,5.75
2019-03-17T23:46:31.025Z,5.82
2019-03-17T23:47:31.005Z,5.82
2019-03-17T23:48:31.008Z,5.75
2019-03-17T23:49:30.979Z,5.73
2019-03-17T23:50:32.501Z,5.70
2019-03-17T23:51:30.954Z,5.80
2019-03-17T23:52:30.954Z,5.77
2019-03-17T23:53:32.515Z,5.77
2019-03-17T23:54:30.927Z,5.79
2019-03-17T23:55:30.913Z,5.79
2019-03-17T23:56:30.902Z,5.69
2019-03-17T23:57:33.342Z,5.75
2019-03-17T23:58:30.958Z,5.85
2019-03-17T23:59:30.885Z,5.76
